Time;durP1;ratioP1;P1;durP2;ratioP2;P2;SDS_P1;SDS_P2;PMS_P1;PMS_P2;Temp;Humidity;BMP_temperature;BMP_pressure;BME280_temperature;BME280_humidity;BME280_pressure;Samples;Min_cycle;Max_cycle;Signal;HPM_P1;HPM_P2
2022/11/04 00:01:54;;;;;;;19.05;12.35;;;;;;;;;;5073443;28;20040;-61
2022/11/04 00:04:21;;;;;;;17.67;12.93;;;;;;;;;;5075010;28;20021;-63
2022/11/04 00:06:48;;;;;;;19.40;15.25;;;;;;;;;;5075687;28;20020;-64
2022/11/04 00:09:24;;;;;;;40.22;37.13;;;;;;;;;;5075722;28;20071;-62
2022/11/04 00:14:35;;;;;;;43.75;40.33;;;;;;;;;;5075020;28;20419;-64
2022/11/04 00:17:21;;;;;;;44.05;40.67;;;;;;;;;;5075281;28;20036;-63
2022/11/04 00:30:56;;;;;;;35.75;32.80;;;;;;;;;;5075682;28;20133;-64
2022/11/04 00:33:25;;;;;;;34.83;32.03;;;;;;;;;;5074608;28;20048;-62
2022/11/04 00:35:52;;;;;;;33.83;31.10;;;;;;;;;;5074017;28;20035;-62
2022/11/04 00:38:18;;;;;;;33.83;31.13;;;;;;;;;;5073804;28;20063;-62
2022/11/04 00:40:44;;;;;;;32.30;29.65;;;;;;;;;;5074030;28;20029;-64
2022/11/04 00:43:10;;;;;;;31.25;28.75;;;;;;;;;;5073618;28;20027;-61
2022/11/04 00:45:37;;;;;;;31.00;28.40;;;;;;;;;;5072256;28;20029;-62
2022/11/04 00:48:03;;;;;;;34.17;31.48;;;;;;;;;;5073989;28;20029;-63
2022/11/04 00:50:29;;;;;;;30.70;28.25;;;;;;;;;;5074932;28;20111;-63
2022/11/04 00:52:59;;;;;;;34.15;31.35;;;;;;;;;;5074880;28;20025;-62
2022/11/04 00:55:25;;;;;;;31.40;28.80;;;;;;;;;;5074474;28;20025;-63
2022/11/04 00:57:51;;;;;;;31.60;29.02;;;;;;;;;;5074880;28;20032;-61
2022/11/04 01:00:18;;;;;;;30.20;27.70;;;;;;;;;;5074423;28;20116;-62
2022/11/04 01:02:44;;;;;;;31.13;28.52;;;;;;;;;;5073545;28;20031;-62
2022/11/04 01:05:10;;;;;;;30.58;28.08;;;;;;;;;;5091482;28;20024;-61
2022/11/04 01:07:37;;;;;;;30.45;27.95;;;;;;;;;;5096261;28;20027;-63
2022/11/04 01:10:03;;;;;;;30.35;27.65;;;;;;;;;;5096051;28;20487;-62
2022/11/04 01:12:29;;;;;;;29.80;27.30;;;;;;;;;;5094338;28;20031;-57
2022/11/04 01:14:55;;;;;;;28.83;26.48;;;;;;;;;;5094438;28;20028;-61
2022/11/04 01:17:21;;;;;;;29.40;26.98;;;;;;;;;;5077787;28;20046;-62
2022/11/04 01:19:47;;;;;;;28.25;25.90;;;;;;;;;;5095763;28;20016;-62
2022/11/04 01:22:13;;;;;;;28.38;25.80;;;;;;;;;;5095034;28;20399;-61
2022/11/04 01:24:39;;;;;;;28.27;25.88;;;;;;;;;;5094358;28;20115;-60
2022/11/04 01:27:05;;;;;;;29.48;26.88;;;;;;;;;;5095260;28;20024;-62
2022/11/04 01:29:31;;;;;;;28.45;25.83;;;;;;;;;;5094790;28;20137;-61
2022/11/04 01:31:57;;;;;;;28.02;25.63;;;;;;;;;;5076723;28;20020;-63
2022/11/04 01:34:23;;;;;;;28.65;26.10;;;;;;;;;;5093771;28;20443;-62
2022/11/04 01:36:49;;;;;;;27.55;25.05;;;;;;;;;;5077837;28;20422;-63
2022/11/04 01:39:15;;;;;;;26.70;24.20;;;;;;;;;;5056325;28;20025;-62
2022/11/04 01:41:41;;;;;;;29.17;26.48;;;;;;;;;;5055950;28;20083;-61
2022/11/04 01:44:25;;;;;;;26.70;24.30;;;;;;;;;;5073154;28;20016;-63
2022/11/04 01:46:53;;;;;;;26.27;23.88;;;;;;;;;;5074471;28;20031;-63
2022/11/04 01:49:19;;;;;;;25.80;23.35;;;;;;;;;;5074521;28;20020;-63
2022/11/04 01:51:46;;;;;;;27.17;24.50;;;;;;;;;;5074254;28;20024;-63
2022/11/04 01:54:12;;;;;;;28.00;25.50;;;;;;;;;;5073201;28;20369;-61
2022/11/04 01:56:40;;;;;;;27.60;25.00;;;;;;;;;;5055933;28;20086;-63
2022/11/04 01:59:08;;;;;;;26.63;24.05;;;;;;;;;;5073966;28;20052;-61
2022/11/04 02:01:34;;;;;;;26.30;23.80;;;;;;;;;;5055849;28;20134;-64
2022/11/04 02:06:49;;;;;;;25.52;23.20;;;;;;;;;;5074333;28;20627;-63
2022/11/04 02:09:16;;;;;;;25.33;22.85;;;;;;;;;;5073336;28;20028;-62
2022/11/04 02:14:27;;;;;;;22.85;20.75;;;;;;;;;;5072512;28;20036;-62
2022/11/04 02:16:55;;;;;;;22.30;20.10;;;;;;;;;;5073392;28;20044;-62
2022/11/04 02:19:24;;;;;;;20.52;18.27;;;;;;;;;;5073306;28;20028;-64
2022/11/04 02:22:22;;;;;;;18.88;16.83;;;;;;;;;;5055489;28;20040;-63
2022/11/04 02:25:07;;;;;;;20.67;18.38;;;;;;;;;;5017626;28;20036;-64
2022/11/04 02:27:45;;;;;;;21.13;18.85;;;;;;;;;;5055284;28;20021;-62
2022/11/04 02:30:18;;;;;;;21.88;18.55;;;;;;;;;;5073287;28;20105;-63
2022/11/04 02:32:50;;;;;;;20.17;17.45;;;;;;;;;;5072972;28;20012;-63
2022/11/04 02:35:22;;;;;;;22.20;17.15;;;;;;;;;;5054277;28;20029;-60
2022/11/04 02:37:57;;;;;;;19.65;16.25;;;;;;;;;;5055042;28;20496;-62
2022/11/04 02:40:42;;;;;;;20.95;16.52;;;;;;;;;;5054908;28;20028;-62
2022/11/04 02:43:23;;;;;;;21.98;16.23;;;;;;;;;;5071734;28;20492;-63
2022/11/04 02:46:10;;;;;;;19.58;15.75;;;;;;;;;;5072542;28;20024;-61
2022/11/04 02:48:38;;;;;;;20.17;15.73;;;;;;;;;;5038121;28;20035;-61
2022/11/04 02:51:12;;;;;;;19.50;13.63;;;;;;;;;;5054649;28;20166;-63
2022/11/04 02:53:38;;;;;;;19.73;13.35;;;;;;;;;;5071731;28;20117;-63
2022/11/04 02:56:05;;;;;;;18.17;13.13;;;;;;;;;;5072647;28;20442;-62
2022/11/04 02:58:40;;;;;;;20.17;14.00;;;;;;;;;;5054666;28;20523;-62
2022/11/04 03:01:07;;;;;;;20.95;13.90;;;;;;;;;;5054413;28;20033;-63
2022/11/04 03:03:36;;;;;;;19.80;14.02;;;;;;;;;;5069797;28;20485;-62
2022/11/04 03:06:02;;;;;;;;;;;;;;;;;;5054829;28;20020;-64
2022/11/04 03:08:31;;;;;;;20.23;14.38;;;;;;;;;;5054422;28;20384;-64
2022/11/04 03:11:09;;;;;;;19.58;14.27;;;;;;;;;;5054913;28;20392;-63
2022/11/04 03:13:47;;;;;;;21.48;15.45;;;;;;;;;;5071832;28;20028;-62
2022/11/04 03:16:16;;;;;;;20.45;14.63;;;;;;;;;;5054626;28;20090;-62
2022/11/04 03:18:58;;;;;;;19.30;14.80;;;;;;;;;;5072797;28;20052;-62
2022/11/04 03:21:25;;;;;;;20.13;15.15;;;;;;;;;;5072513;28;20391;-61
2022/11/04 03:23:52;;;;;;;20.42;15.40;;;;;;;;;;5071480;28;20032;-61
2022/11/04 03:26:18;;;;;;;21.45;16.02;;;;;;;;;;5073734;28;20384;-61
2022/11/04 03:29:02;;;;;;;20.33;14.38;;;;;;;;;;5072366;28;20025;-61
2022/11/04 03:31:42;;;;;;;21.33;15.80;;;;;;;;;;5054596;28;20477;-64
2022/11/04 03:34:08;;;;;;;21.35;15.00;;;;;;;;;;5054879;28;20038;-62
2022/11/04 03:36:34;;;;;;;21.50;15.20;;;;;;;;;;5054082;28;20032;-61
2022/11/04 03:39:00;;;;;;;21.63;15.15;;;;;;;;;;5072090;28;20472;-62
2022/11/04 03:41:42;;;;;;;19.90;14.80;;;;;;;;;;5071874;28;20064;-62
2022/11/04 03:44:08;;;;;;;20.80;15.77;;;;;;;;;;5053368;28;20116;-63
2022/11/04 03:46:34;;;;;;;21.70;15.15;;;;;;;;;;5054528;28;20040;-61
2022/11/04 03:49:00;;;;;;;20.35;14.30;;;;;;;;;;5054315;28;20028;-62
2022/11/04 03:51:26;;;;;;;19.83;13.88;;;;;;;;;;5072199;28;20013;-63
2022/11/04 03:53:53;;;;;;;20.88;13.93;;;;;;;;;;5071404;28;20361;-63
2022/11/04 03:56:28;;;;;;;20.02;14.50;;;;;;;;;;5054366;28;20024;-63
2022/11/04 03:58:57;;;;;;;20.42;13.70;;;;;;;;;;5072780;28;20028;-63
2022/11/04 04:01:32;;;;;;;20.40;13.55;;;;;;;;;;5054425;28;20024;-64
2022/11/04 04:03:58;;;;;;;20.50;14.40;;;;;;;;;;5069978;28;20408;-62
2022/11/04 04:06:27;;;;;;;19.98;13.38;;;;;;;;;;5072398;28;20095;-64
2022/11/04 04:08:56;;;;;;;19.85;13.63;;;;;;;;;;5072163;28;20027;-61
2022/11/04 04:11:41;;;;;;;22.20;13.75;;;;;;;;;;5072369;28;20029;-64
2022/11/04 04:14:37;;;;;;;20.40;14.00;;;;;;;;;;5071440;28;20063;-64
2022/11/04 04:17:03;;;;;;;18.60;13.38;;;;;;;;;;5072313;28;20369;-62
2022/11/04 04:19:29;;;;;;;18.47;12.87;;;;;;;;;;5072368;28;20511;-63
2022/11/04 04:22:01;;;;;;;20.02;13.25;;;;;;;;;;5072315;28;20033;-62
2022/11/04 04:27:32;;;;;;;19.45;12.70;;;;;;;;;;5072317;28;20039;-62
2022/11/04 04:30:18;;;;;;;21.35;12.77;;;;;;;;;;5072170;28;20025;-61
2022/11/04 04:32:46;;;;;;;22.38;14.82;;;;;;;;;;5072048;28;20024;-63
2022/11/04 04:44:58;;;;;;;20.20;14.15;;;;;;;;;;5072247;28;20114;-62
2022/11/04 04:46:17;;;;;;;19.38;13.35;;;;;;;;;;5072134;28;20086;-62
2022/11/04 04:48:43;;;;;;;18.83;12.43;;;;;;;;;;5055177;28;20397;-63
2022/11/04 04:51:09;;;;;;;18.60;12.23;;;;;;;;;;5075489;28;20024;-58
2022/11/04 04:53:35;;;;;;;18.95;12.25;;;;;;;;;;5074590;28;20035;-61
2022/11/04 04:56:01;;;;;;;19.63;13.00;;;;;;;;;;5075386;28;20020;-62
2022/11/04 04:58:27;;;;;;;18.45;13.68;;;;;;;;;;5075325;28;20020;-62
2022/11/04 05:00:53;;;;;;;21.10;13.02;;;;;;;;;;5075183;28;20434;-62
2022/11/04 05:03:19;;;;;;;18.00;12.27;;;;;;;;;;5073405;28;20100;-62
2022/11/04 05:05:45;;;;;;;20.35;12.88;;;;;;;;;;5057038;28;20024;-63
2022/11/04 05:08:11;;;;;;;20.15;12.52;;;;;;;;;;5075101;28;20078;-59
2022/11/04 05:10:37;;;;;;;19.58;13.05;;;;;;;;;;5075410;28;20047;-62
2022/11/04 05:15:48;;;;;;;18.73;12.27;;;;;;;;;;5075024;28;20036;-61
2022/11/04 05:18:14;;;;;;;19.05;12.98;;;;;;;;;;5074992;28;20116;-62
2022/11/04 05:20:40;;;;;;;19.63;12.77;;;;;;;;;;5074880;28;20483;-63
2022/11/04 05:23:06;;;;;;;22.50;11.73;;;;;;;;;;5076092;22;20064;-58
2022/11/04 05:25:32;;;;;;;18.60;12.07;;;;;;;;;;5073779;28;20028;-63
2022/11/04 05:28:01;;;;;;;19.63;11.70;;;;;;;;;;5073963;28;20028;-62
2022/11/04 05:30:28;;;;;;;18.55;11.70;;;;;;;;;;5072480;28;20484;-63
2022/11/04 05:32:54;;;;;;;20.20;11.75;;;;;;;;;;5072543;28;20032;-61
2022/11/04 05:35:20;;;;;;;22.20;12.25;;;;;;;;;;5073405;28;20389;-61
2022/11/04 05:37:46;;;;;;;20.70;11.88;;;;;;;;;;5072069;28;20025;-62
2022/11/04 05:40:12;;;;;;;19.08;12.20;;;;;;;;;;5073541;28;20107;-62
2022/11/04 05:42:38;;;;;;;19.83;11.88;;;;;;;;;;5073654;28;20603;-61
2022/11/04 05:45:04;;;;;;;24.73;12.95;;;;;;;;;;5071721;28;20024;-61
2022/11/04 05:47:30;;;;;;;18.55;12.35;;;;;;;;;;5067355;28;20020;-62
2022/11/04 05:49:56;;;;;;;22.33;12.10;;;;;;;;;;5079165;28;20475;-62
2022/11/04 05:52:22;;;;;;;23.25;13.38;;;;;;;;;;5073573;28;20032;-62
2022/11/04 05:54:48;;;;;;;20.10;11.85;;;;;;;;;;5053885;28;20096;-62
2022/11/04 05:57:14;;;;;;;20.33;11.52;;;;;;;;;;5053303;28;20025;-62
2022/11/04 05:59:40;;;;;;;18.20;11.48;;;;;;;;;;5052763;28;20112;-61
2022/11/04 06:02:06;;;;;;;18.80;12.50;;;;;;;;;;5043592;28;20120;-61
2022/11/04 06:04:32;;;;;;;18.92;11.65;;;;;;;;;;5053915;28;20028;-63
2022/11/04 06:06:58;;;;;;;24.92;12.27;;;;;;;;;;5072715;28;20028;-63
2022/11/04 06:09:37;;;;;;;18.55;11.77;;;;;;;;;;5054885;28;20022;-61
2022/11/04 06:12:16;;;;;;;20.58;11.07;;;;;;;;;;5072999;28;20020;-60
2022/11/04 06:14:43;;;;;;;19.80;10.35;;;;;;;;;;5071816;28;20158;-59
2022/11/04 06:17:16;;;;;;;18.15;11.23;;;;;;;;;;5072547;28;20074;-61
2022/11/04 06:19:42;;;;;;;21.60;13.35;;;;;;;;;;5059064;28;20040;-60
2022/11/04 06:22:11;;;;;;;22.60;11.93;;;;;;;;;;5052268;28;20033;-61
2022/11/04 06:24:38;;;;;;;23.73;11.55;;;;;;;;;;5051475;28;20485;-59
2022/11/04 06:27:04;;;;;;;19.58;11.40;;;;;;;;;;5052138;28;20039;-60
2022/11/04 06:29:30;;;;;;;18.52;11.73;;;;;;;;;;5052209;28;20029;-59
2022/11/04 06:31:56;;;;;;;19.60;12.38;;;;;;;;;;5052112;28;20135;-66
2022/11/04 06:34:22;;;;;;;19.75;12.27;;;;;;;;;;5051499;28;20033;-63
2022/11/04 06:36:48;;;;;;;19.17;12.35;;;;;;;;;;5052130;28;20146;-62
2022/11/04 06:39:14;;;;;;;19.83;11.30;;;;;;;;;;5052189;28;20033;-61
2022/11/04 06:41:40;;;;;;;19.17;11.07;;;;;;;;;;5051785;28;20055;-61
2022/11/04 06:44:07;;;;;;;20.88;11.15;;;;;;;;;;5051049;28;20028;-61
2022/11/04 06:46:32;;;;;;;22.13;12.27;;;;;;;;;;5043086;28;20464;-62
2022/11/04 06:48:58;;;;;;;20.67;11.63;;;;;;;;;;5072075;28;20133;-60
2022/11/04 06:51:25;;;;;;;20.40;11.60;;;;;;;;;;5071930;28;20020;-60
2022/11/04 06:53:51;;;;;;;19.10;11.57;;;;;;;;;;5053151;28;20081;-63
2022/11/04 06:56:17;;;;;;;22.10;13.02;;;;;;;;;;5072701;28;20071;-63
2022/11/04 06:58:43;;;;;;;22.48;13.48;;;;;;;;;;5073224;28;20032;-62
2022/11/04 07:01:09;;;;;;;21.10;13.48;;;;;;;;;;5075064;28;20750;-62
2022/11/04 07:03:35;;;;;;;25.13;13.50;;;;;;;;;;5075031;28;20035;-61
2022/11/04 07:06:08;;;;;;;22.75;12.88;;;;;;;;;;5072805;28;20089;-60
2022/11/04 07:08:34;;;;;;;22.25;12.15;;;;;;;;;;5053958;28;20016;-61
2022/11/04 07:11:00;;;;;;;25.92;12.70;;;;;;;;;;5070865;28;20035;-61
2022/11/04 07:13:26;;;;;;;19.90;12.25;;;;;;;;;;5070791;28;20431;-61
2022/11/04 07:15:52;;;;;;;23.20;12.93;;;;;;;;;;5071677;28;20108;-57
2022/11/04 07:18:18;;;;;;;25.98;12.70;;;;;;;;;;5071719;28;20078;-59
2022/11/04 07:20:44;;;;;;;24.45;13.20;;;;;;;;;;5061562;28;20389;-61
2022/11/04 07:23:10;;;;;;;26.98;12.35;;;;;;;;;;5050684;28;20056;-61
2022/11/04 07:25:36;;;;;;;19.42;11.82;;;;;;;;;;5050192;28;20740;-62
2022/11/04 07:28:02;;;;;;;21.00;12.80;;;;;;;;;;5051145;28;20037;-61
2022/11/04 07:30:28;;;;;;;21.02;11.73;;;;;;;;;;5050170;28;20040;-62
2022/11/04 07:32:54;;;;;;;19.20;11.10;;;;;;;;;;5051409;28;20017;-57
2022/11/04 07:35:20;;;;;;;22.38;12.20;;;;;;;;;;5050961;28;20401;-65
2022/11/04 07:37:46;;;;;;;20.50;12.02;;;;;;;;;;5050189;28;20032;-62
2022/11/04 07:40:12;;;;;;;18.83;10.88;;;;;;;;;;5051334;28;20569;-62
2022/11/04 07:42:38;;;;;;;22.50;11.65;;;;;;;;;;5051413;28;20021;-62
2022/11/04 07:45:05;;;;;;;20.10;10.93;;;;;;;;;;5050638;28;20492;-60
2022/11/04 07:47:31;;;;;;;23.13;11.38;;;;;;;;;;5060464;28;20020;-64
2022/11/04 07:49:57;;;;;;;20.08;11.27;;;;;;;;;;5071358;28;20020;-63
2022/11/04 07:52:23;;;;;;;23.00;11.15;;;;;;;;;;5071394;28;20631;-64
2022/11/04 07:54:50;;;;;;;22.33;12.20;;;;;;;;;;5070398;28;20585;-59
2022/11/04 07:57:15;;;;;;;25.60;14.85;;;;;;;;;;5071170;28;20103;-61
2022/11/04 07:59:41;;;;;;;23.10;11.52;;;;;;;;;;5053563;28;20162;-62
2022/11/04 08:02:09;;;;;;;19.95;10.73;;;;;;;;;;5071463;28;20214;-61
2022/11/04 08:04:35;;;;;;;17.98;10.40;;;;;;;;;;5070608;28;20028;-63
2022/11/04 08:07:01;;;;;;;22.60;10.93;;;;;;;;;;5070986;28;20021;-63
2022/11/04 08:09:27;;;;;;;21.30;10.07;;;;;;;;;;5071389;28;20044;-63
2022/11/04 08:11:53;;;;;;;22.67;10.32;;;;;;;;;;5071198;28;20068;-63
2022/11/04 08:14:20;;;;;;;20.52;10.10;;;;;;;;;;5070390;28;20142;-61
2022/11/04 08:16:46;;;;;;;19.45;9.43;;;;;;;;;;5071022;28;20073;-62
2022/11/04 08:19:12;;;;;;;23.45;10.25;;;;;;;;;;5071006;28;20025;-62
2022/11/04 08:21:38;;;;;;;21.17;10.73;;;;;;;;;;5070884;28;20025;-61
2022/11/04 08:24:04;;;;;;;22.52;10.05;;;;;;;;;;5073443;28;20024;-61
2022/11/04 08:26:31;;;;;;;19.92;10.07;;;;;;;;;;5074739;28;20381;-63
2022/11/04 08:28:57;;;;;;;19.27;10.77;;;;;;;;;;5074693;28;20544;-64
2022/11/04 08:31:27;;;;;;;20.92;10.05;;;;;;;;;;5074684;28;20031;-63
2022/11/04 08:33:53;;;;;;;19.48;10.05;;;;;;;;;;5073704;28;20465;-62
2022/11/04 08:36:21;;;;;;;18.92;10.45;;;;;;;;;;5056247;28;20044;-59
2022/11/04 08:38:47;;;;;;;19.98;9.82;;;;;;;;;;5056342;28;20028;-58
2022/11/04 08:41:14;;;;;;;20.95;10.68;;;;;;;;;;5074467;28;20032;-60
2022/11/04 08:43:40;;;;;;;19.60;10.70;;;;;;;;;;5073625;28;20032;-60
2022/11/04 08:46:07;;;;;;;19.63;10.45;;;;;;;;;;5074275;28;20020;-57
2022/11/04 08:48:34;;;;;;;20.58;10.23;;;;;;;;;;5074035;28;20450;-60
2022/11/04 08:51:01;;;;;;;18.90;9.90;;;;;;;;;;5074414;28;20028;-57
2022/11/04 08:53:27;;;;;;;19.33;9.88;;;;;;;;;;5073429;28;20035;-59
2022/11/04 08:55:54;;;;;;;19.65;9.27;;;;;;;;;;5074419;28;20080;-59
2022/11/04 08:58:21;;;;;;;22.63;10.13;;;;;;;;;;5074470;28;20035;-60
2022/11/04 09:00:47;;;;;;;21.17;10.07;;;;;;;;;;5059872;28;20115;-63
2022/11/04 09:03:13;;;;;;;23.83;10.65;;;;;;;;;;5079290;28;20028;-64
2022/11/04 09:05:44;;;;;;;20.67;10.93;;;;;;;;;;5060590;28;20021;-60
2022/11/04 09:08:19;;;;;;;22.27;9.65;;;;;;;;;;5056286;28;20035;-61
2022/11/04 09:10:46;;;;;;;19.73;9.48;;;;;;;;;;5074240;28;20032;-61
2022/11/04 09:13:14;;;;;;;21.83;11.27;;;;;;;;;;5057740;28;20035;-64
2022/11/04 09:15:40;;;;;;;18.33;10.37;;;;;;;;;;5036299;28;20021;-64
2022/11/04 09:18:07;;;;;;;17.08;9.02;;;;;;;;;;5054393;28;20583;-62
2022/11/04 09:20:33;;;;;;;20.88;9.35;;;;;;;;;;5054064;28;20031;-63
2022/11/04 09:23:00;;;;;;;18.25;9.75;;;;;;;;;;5053054;28;20043;-63
2022/11/04 09:25:26;;;;;;;20.02;9.30;;;;;;;;;;5068615;28;20472;-62
2022/11/04 09:27:52;;;;;;;20.55;9.98;;;;;;;;;;5074133;28;20029;-62
2022/11/04 09:30:18;;;;;;;17.88;9.85;;;;;;;;;;5073877;28;20020;-63
2022/11/04 09:32:44;;;;;;;17.50;9.60;;;;;;;;;;5073801;28;20048;-64
2022/11/04 09:35:10;;;;;;;16.30;9.55;;;;;;;;;;5072287;28;20025;-61
2022/11/04 09:37:37;;;;;;;18.75;9.63;;;;;;;;;;5074088;28;20024;-62
2022/11/04 09:40:03;;;;;;;22.75;9.80;;;;;;;;;;5073723;28;20031;-62
2022/11/04 09:42:29;;;;;;;19.42;10.00;;;;;;;;;;5073431;28;20514;-65
2022/11/04 09:45:00;;;;;;;18.05;9.10;;;;;;;;;;5072751;28;20028;-63
2022/11/04 09:47:27;;;;;;;17.80;10.02;;;;;;;;;;5064909;28;20028;-61
2022/11/04 09:49:56;;;;;;;19.90;9.68;;;;;;;;;;5053428;28;20044;-62
2022/11/04 09:52:27;;;;;;;25.17;10.52;;;;;;;;;;5052943;28;20027;-60
2022/11/04 09:55:12;;;;;;;18.05;9.48;;;;;;;;;;5050002;28;20075;-63
2022/11/04 09:57:38;;;;;;;20.08;10.38;;;;;;;;;;5052436;28;20029;-62
2022/11/04 10:00:05;;;;;;;18.70;10.32;;;;;;;;;;5053399;28;20049;-65
2022/11/04 10:03:06;;;;;;;19.45;10.32;;;;;;;;;;5035308;28;20079;-62
2022/11/04 10:05:32;;;;;;;21.05;10.30;;;;;;;;;;4952211;28;20528;-63
2022/11/04 10:07:58;;;;;;;23.58;10.13;;;;;;;;;;5015249;28;20037;-63
2022/11/04 10:10:24;;;;;;;20.48;10.07;;;;;;;;;;5035048;28;20021;-64
2022/11/04 10:13:05;;;;;;;19.65;10.30;;;;;;;;;;5052773;28;20025;-59
2022/11/04 10:15:31;;;;;;;17.05;9.60;;;;;;;;;;5052675;28;20033;-63
2022/11/04 10:17:57;;;;;;;19.83;10.88;;;;;;;;;;5052518;28;20475;-63
2022/11/04 10:20:42;;;;;;;19.83;10.77;;;;;;;;;;5052719;28;20020;-61
2022/11/04 10:23:11;;;;;;;18.92;10.63;;;;;;;;;;5051686;28;20025;-62
2022/11/04 10:25:42;;;;;;;20.42;10.70;;;;;;;;;;5052700;28;20151;-66
2022/11/04 10:28:12;;;;;;;22.23;11.25;;;;;;;;;;5052721;28;20040;-62
2022/11/04 10:30:40;;;;;;;23.05;10.60;;;;;;;;;;5052372;28;20614;-64
2022/11/04 10:33:19;;;;;;;18.80;10.10;;;;;;;;;;5051481;28;20508;-59
2022/11/04 10:35:50;;;;;;;20.77;10.38;;;;;;;;;;5052188;28;20029;-63
2022/11/04 10:38:18;;;;;;;20.90;10.88;;;;;;;;;;5052191;28;20102;-62
2022/11/04 10:40:49;;;;;;;17.10;10.70;;;;;;;;;;5052194;28;20485;-59
2022/11/04 10:43:16;;;;;;;20.17;11.10;;;;;;;;;;5051554;28;20373;-61
2022/11/04 10:45:56;;;;;;;19.35;10.13;;;;;;;;;;5052224;28;20027;-63
2022/11/04 10:48:27;;;;;;;20.38;10.13;;;;;;;;;;5068376;28;20021;-60
2022/11/04 10:50:54;;;;;;;21.02;10.20;;;;;;;;;;5074180;28;20031;-64
2022/11/04 10:53:22;;;;;;;21.52;10.35;;;;;;;;;;5071488;28;20029;-64
2022/11/04 10:55:56;;;;;;;19.40;10.00;;;;;;;;;;5071846;28;20044;-66
2022/11/04 10:58:24;;;;;;;20.70;10.15;;;;;;;;;;5072233;28;20547;-64
2022/11/04 11:00:51;;;;;;;18.20;9.68;;;;;;;;;;5072318;28;20025;-63
2022/11/04 11:03:31;;;;;;;18.08;10.35;;;;;;;;;;5071240;28;20036;-64
2022/11/04 11:06:29;;;;;;;19.23;10.98;;;;;;;;;;5071906;28;20038;-64
2022/11/04 11:08:59;;;;;;;19.65;11.20;;;;;;;;;;5027279;28;20028;-63
2022/11/04 11:11:36;;;;;;;19.30;11.05;;;;;;;;;;5071879;28;20074;-63
2022/11/04 11:14:02;;;;;;;21.15;11.10;;;;;;;;;;5053359;28;20488;-63
2022/11/04 11:16:30;;;;;;;19.90;11.65;;;;;;;;;;5071761;28;20086;-63
2022/11/04 11:19:11;;;;;;;19.23;10.93;;;;;;;;;;5071598;28;20024;-66
2022/11/04 11:21:51;;;;;;;17.17;10.43;;;;;;;;;;5071577;28;20503;-65
2022/11/04 11:24:21;;;;;;;18.77;10.85;;;;;;;;;;5092922;22;20036;-64
2022/11/04 11:26:49;;;;;;;22.38;11.27;;;;;;;;;;5071693;28;20116;-67
2022/11/04 11:29:20;;;;;;;17.92;10.82;;;;;;;;;;5071846;28;20025;-63
2022/11/04 11:31:46;;;;;;;18.75;10.52;;;;;;;;;;5070383;28;20024;-66
2022/11/04 11:34:17;;;;;;;17.55;10.70;;;;;;;;;;5069428;28;20028;-64
2022/11/04 11:36:46;;;;;;;20.60;11.45;;;;;;;;;;5071581;28;20032;-63
2022/11/04 11:39:15;;;;;;;19.27;11.32;;;;;;;;;;5070444;28;20087;-66
2022/11/04 11:42:08;;;;;;;29.55;11.82;;;;;;;;;;5071724;28;20059;-65
2022/11/04 11:44:37;;;;;;;22.08;10.57;;;;;;;;;;5066586;28;20037;-63
2022/11/04 11:47:07;;;;;;;20.00;10.90;;;;;;;;;;5069988;28;20017;-60
2022/11/04 11:49:35;;;;;;;17.60;10.13;;;;;;;;;;5071205;28;20044;-64
2022/11/04 11:52:19;;;;;;;19.15;10.18;;;;;;;;;;5071271;28;20400;-65
2022/11/04 11:54:48;;;;;;;19.75;9.85;;;;;;;;;;5070250;28;20507;-66
2022/11/04 11:57:32;;;;;;;17.25;9.70;;;;;;;;;;5070676;28;20020;-66
2022/11/04 12:00:08;;;;;;;19.23;9.88;;;;;;;;;;5075176;28;20058;-66
2022/11/04 12:02:41;;;;;;;19.02;10.52;;;;;;;;;;5074121;28;20029;-66
2022/11/04 12:05:11;;;;;;;19.85;11.45;;;;;;;;;;5073210;28;20502;-65
2022/11/04 12:07:48;;;;;;;18.83;10.95;;;;;;;;;;5073918;28;20158;-65
2022/11/04 12:10:17;;;;;;;17.23;11.20;;;;;;;;;;5075148;28;20108;-66
2022/11/04 12:12:53;;;;;;;17.85;11.32;;;;;;;;;;5073739;28;20024;-65
2022/11/04 12:15:22;;;;;;;20.13;11.52;;;;;;;;;;5072845;28;20377;-63
2022/11/04 12:17:48;;;;;;;19.63;11.70;;;;;;;;;;5073496;28;20121;-65
2022/11/04 12:20:20;;;;;;;19.75;11.25;;;;;;;;;;5073730;28;20078;-66
2022/11/04 12:22:52;;;;;;;18.88;11.73;;;;;;;;;;5073609;28;20029;-66
2022/11/04 12:25:31;;;;;;;20.75;12.55;;;;;;;;;;5072306;28;20396;-66
2022/11/04 12:28:15;;;;;;;20.00;12.00;;;;;;;;;;5075002;28;20021;-66
2022/11/04 12:30:53;;;;;;;19.60;11.85;;;;;;;;;;5074545;28;20548;-66
2022/11/04 12:33:22;;;;;;;20.90;12.10;;;;;;;;;;5073450;28;20028;-65
2022/11/04 12:36:08;;;;;;;20.65;12.07;;;;;;;;;;5073404;28;20051;-67
2022/11/04 12:38:53;;;;;;;19.38;12.10;;;;;;;;;;5074282;28;20503;-66
2022/11/04 12:41:34;;;;;;;19.27;11.98;;;;;;;;;;5074004;28;20044;-62
2022/11/04 12:44:06;;;;;;;20.15;11.93;;;;;;;;;;5073143;28;20024;-64
2022/11/04 12:46:39;;;;;;;20.33;13.20;;;;;;;;;;5075701;28;20036;-63
2022/11/04 12:49:24;;;;;;;21.52;12.48;;;;;;;;;;5073806;28;20031;-65
2022/11/04 12:52:00;;;;;;;19.98;12.30;;;;;;;;;;5073218;28;20392;-65
2022/11/04 12:54:26;;;;;;;18.60;12.25;;;;;;;;;;5074391;28;20017;-64
2022/11/04 12:57:13;;;;;;;16.27;11.30;;;;;;;;;;5075329;28;20032;-65
2022/11/04 12:59:42;;;;;;;18.90;11.32;;;;;;;;;;5063484;28;20464;-66
2022/11/04 13:02:14;;;;;;;20.23;12.40;;;;;;;;;;5074771;28;20496;-66
2022/11/04 13:04:54;;;;;;;20.27;11.82;;;;;;;;;;5073435;28;20453;-64
2022/11/04 13:07:22;;;;;;;17.95;11.50;;;;;;;;;;5074868;28;20028;-67
2022/11/04 13:09:53;;;;;;;20.27;11.13;;;;;;;;;;5073194;28;20067;-65
2022/11/04 13:12:30;;;;;;;17.50;11.82;;;;;;;;;;5072860;28;20028;-66
2022/11/04 13:15:01;;;;;;;22.50;12.50;;;;;;;;;;5073457;28;20506;-62
2022/11/04 13:17:35;;;;;;;19.02;11.48;;;;;;;;;;5074197;28;20028;-63
2022/11/04 13:20:21;;;;;;;19.42;11.82;;;;;;;;;;5074419;28;20025;-66
2022/11/04 13:22:49;;;;;;;23.50;12.35;;;;;;;;;;5062763;28;20037;-64
2022/11/04 13:25:24;;;;;;;20.92;11.68;;;;;;;;;;5071444;28;20040;-66
2022/11/04 13:27:50;;;;;;;17.15;10.95;;;;;;;;;;5074451;28;20037;-66
2022/11/04 13:30:21;;;;;;;19.35;12.20;;;;;;;;;;5074633;28;20464;-65
2022/11/04 13:32:47;;;;;;;19.45;11.50;;;;;;;;;;5074224;28;20025;-68
2022/11/04 13:35:18;;;;;;;18.13;11.77;;;;;;;;;;5072314;28;20044;-66
2022/11/04 13:38:11;;;;;;;19.02;12.02;;;;;;;;;;5074118;28;20049;-66
2022/11/04 13:40:55;;;;;;;18.10;12.88;;;;;;;;;;5072023;28;20063;-66
2022/11/04 13:43:39;;;;;;;18.25;11.90;;;;;;;;;;5071808;28;20338;-67
2022/11/04 13:46:16;;;;;;;19.63;12.20;;;;;;;;;;5074026;28;20047;-64
2022/11/04 13:49:08;;;;;;;18.45;12.10;;;;;;;;;;5091183;28;20031;-63
2022/11/04 13:51:39;;;;;;;18.92;12.40;;;;;;;;;;5069972;28;20040;-65
2022/11/04 13:54:06;;;;;;;18.23;12.23;;;;;;;;;;5092579;28;20032;-64
2022/11/04 13:56:40;;;;;;;20.17;12.32;;;;;;;;;;5094099;28;20024;-65
2022/11/04 13:59:25;;;;;;;22.08;11.65;;;;;;;;;;5094260;28;20028;-65
2022/11/04 14:02:11;;;;;;;21.60;11.20;;;;;;;;;;5093492;28;20085;-63
2022/11/04 14:04:46;;;;;;;17.70;11.00;;;;;;;;;;5093346;28;20030;-64
2022/11/04 14:07:15;;;;;;;17.35;10.73;;;;;;;;;;5093312;28;20016;-61
2022/11/04 14:09:41;;;;;;;18.35;10.85;;;;;;;;;;5093031;28;20097;-65
2022/11/04 14:12:13;;;;;;;22.42;11.65;;;;;;;;;;5093662;28;20024;-64
2022/11/04 14:14:40;;;;;;;18.35;9.57;;;;;;;;;;5092400;28;20099;-64
2022/11/04 14:17:26;;;;;;;18.08;10.15;;;;;;;;;;5093895;28;20534;-65
2022/11/04 14:19:56;;;;;;;17.73;10.07;;;;;;;;;;5092846;28;20115;-63
2022/11/04 14:22:26;;;;;;;21.77;11.18;;;;;;;;;;5094054;28;20032;-62
2022/11/04 14:25:00;;;;;;;20.08;9.50;;;;;;;;;;5093308;28;20055;-64
2022/11/04 14:27:46;;;;;;;19.92;10.43;;;;;;;;;;5096063;28;20488;-64
2022/11/04 14:30:31;;;;;;;19.90;9.68;;;;;;;;;;5093838;28;20028;-64
2022/11/04 14:33:03;;;;;;;18.27;9.60;;;;;;;;;;5092478;28;20510;-64
2022/11/04 14:35:30;;;;;;;16.95;9.10;;;;;;;;;;5092569;28;20028;-65
2022/11/04 14:37:58;;;;;;;22.15;10.20;;;;;;;;;;5092568;28;20024;-62
2022/11/04 14:40:28;;;;;;;17.50;9.25;;;;;;;;;;5093234;28;20032;-64
2022/11/04 14:42:55;;;;;;;15.00;9.30;;;;;;;;;;5092194;28;20518;-65
2022/11/04 14:45:23;;;;;;;26.10;10.20;;;;;;;;;;5091150;28;20032;-66
2022/11/04 14:47:51;;;;;;;20.95;9.57;;;;;;;;;;5073317;28;20074;-66
2022/11/04 14:50:25;;;;;;;16.67;9.40;;;;;;;;;;5073389;28;20024;-65
2022/11/04 14:52:54;;;;;;;18.02;9.93;;;;;;;;;;5071646;28;20114;-66
2022/11/04 14:55:22;;;;;;;20.80;9.57;;;;;;;;;;5072709;28;20036;-66
2022/11/04 14:57:49;;;;;;;17.38;9.52;;;;;;;;;;5073111;28;20029;-65
2022/11/04 15:00:22;;;;;;;18.15;10.18;;;;;;;;;;5072963;28;20021;-63
2022/11/04 15:02:49;;;;;;;20.30;10.00;;;;;;;;;;5070889;28;20174;-63
2022/11/04 15:05:25;;;;;;;18.73;10.27;;;;;;;;;;5070571;28;20072;-65
2022/11/04 15:07:51;;;;;;;17.38;9.63;;;;;;;;;;5072599;28;20028;-65
2022/11/04 15:10:23;;;;;;;18.55;10.27;;;;;;;;;;4369256;28;10000175;-65